createdAt,value
2022-09-15T00:00:27.378Z,82.20
2022-09-15T00:02:53.942Z,78.65
2022-09-15T00:05:20.855Z,72.10
2022-09-15T00:07:47.686Z,70.50
2022-09-15T00:10:14.077Z,70.45
2022-09-15T00:12:40.459Z,69.97
2022-09-15T00:15:07.720Z,69.70
2022-09-15T00:17:34.121Z,71.43
2022-09-15T00:20:00.539Z,68.50
2022-09-15T00:22:28.059Z,73.63
2022-09-15T00:24:54.432Z,70.88
2022-09-15T00:27:20.778Z,72.68
2022-09-15T00:29:47.131Z,69.22
2022-09-15T00:32:13.476Z,71.43
2022-09-15T00:34:39.841Z,65.53
2022-09-15T00:37:06.429Z,66.28
2022-09-15T00:39:32.865Z,71.70
2022-09-15T00:41:59.369Z,71.72
2022-09-15T00:44:44.708Z,68.68
2022-09-15T00:47:19.289Z,67.68
2022-09-15T00:49:48.619Z,68.05
2022-09-15T00:52:20.715Z,64.88
2022-09-15T00:55:02.649Z,66.03
2022-09-15T00:57:41.117Z,65.00
2022-09-15T01:00:13.279Z,61.85
2022-09-15T01:02:43.091Z,62.55
2022-09-15T01:05:12.749Z,63.40
2022-09-15T01:08:01.764Z,63.78
2022-09-15T01:10:34.691Z,63.60
2022-09-15T01:13:04.440Z,64.38
2022-09-15T01:15:44.524Z,66.05
2022-09-15T01:18:45.073Z,63.13
2022-09-15T01:21:21.687Z,59.00
2022-09-15T01:24:06.675Z,59.67
2022-09-15T01:26:35.989Z,56.17
2022-09-15T01:29:33.372Z,61.08
2022-09-15T01:32:44.649Z,57.17
2022-09-15T01:35:20.455Z,56.90
2022-09-15T01:37:52.882Z,57.88
2022-09-15T01:40:23.185Z,59.83
2022-09-15T01:42:51.001Z,60.05
2022-09-15T01:45:26.500Z,58.20
2022-09-15T01:47:56.942Z,58.25
2022-09-15T01:50:28.570Z,56.63
2022-09-15T01:52:57.393Z,52.20
2022-09-15T01:55:40.347Z,53.28
2022-09-15T01:58:07.072Z,50.20
2022-09-15T02:00:38.347Z,50.15
2022-09-15T02:03:14.375Z,47.90
2022-09-15T02:05:47.733Z,48.40
2022-09-15T02:08:32.945Z,46.90
2022-09-15T02:11:18.232Z,50.67
2022-09-15T02:14:11.199Z,48.13
2022-09-15T02:16:41.108Z,49.65
2022-09-15T02:19:25.994Z,47.63
2022-09-15T02:22:07.610Z,50.47
2022-09-15T02:24:43.141Z,47.95
2022-09-15T02:27:16.129Z,51.58
2022-09-15T02:29:47.107Z,51.15
2022-09-15T02:32:17.850Z,54.17
2022-09-15T02:34:47.782Z,49.00
2022-09-15T02:37:14.853Z,56.65
2022-09-15T02:39:48.797Z,58.50
2022-09-15T02:42:24.453Z,60.00
2022-09-15T02:44:51.412Z,57.22
2022-09-15T02:47:17.856Z,66.60
2022-09-15T02:49:44.298Z,71.43
2022-09-15T02:52:11.001Z,68.85
2022-09-15T02:54:37.966Z,65.50
2022-09-15T02:57:04.959Z,64.60
2022-09-15T02:59:51.307Z,70.28
2022-09-15T03:02:20.539Z,66.68
2022-09-15T03:04:48.086Z,70.30
2022-09-15T03:07:14.847Z,70.95
2022-09-15T03:09:41.476Z,77.30
2022-09-15T03:12:08.108Z,75.78
2022-09-15T03:14:36.668Z,78.03
2022-09-15T03:17:03.401Z,75.30
2022-09-15T03:19:30.838Z,81.13
2022-09-15T03:21:57.407Z,83.13
2022-09-15T03:24:23.762Z,83.95
2022-09-15T03:26:50.176Z,81.22
2022-09-15T03:29:16.771Z,88.28
2022-09-15T03:31:43.451Z,84.40
2022-09-15T03:34:09.981Z,86.57
2022-09-15T03:36:36.307Z,88.60
2022-09-15T03:39:02.943Z,89.20
2022-09-15T03:41:29.358Z,85.78
2022-09-15T03:43:56.595Z,87.95
2022-09-15T03:46:23.011Z,90.40
2022-09-15T03:48:49.392Z,91.00
2022-09-15T03:51:15.707Z,87.32
2022-09-15T03:53:42.462Z,90.93
2022-09-15T03:56:09.131Z,88.10
2022-09-15T03:58:37.909Z,81.95
2022-09-15T04:01:04.419Z,84.30
2022-09-15T04:03:31.650Z,77.30
2022-09-15T04:05:57.974Z,81.28
2022-09-15T04:08:24.374Z,70.50
2022-09-15T04:10:50.724Z,72.82
2022-09-15T04:13:17.137Z,75.60
2022-09-15T04:15:44.551Z,77.65
2022-09-15T04:18:10.918Z,77.97
2022-09-15T04:20:39.698Z,72.05
2022-09-15T04:23:06.131Z,72.90
2022-09-15T04:25:37.943Z,74.43
2022-09-15T04:28:04.395Z,68.57
2022-09-15T04:30:30.941Z,74.00
2022-09-15T04:32:57.336Z,71.07
2022-09-15T04:35:23.796Z,72.72
2022-09-15T04:37:50.230Z,73.38
2022-09-15T04:40:16.779Z,73.07
2022-09-15T04:42:43.230Z,69.03
2022-09-15T04:45:10.123Z,68.32
2022-09-15T04:47:39.355Z,69.43
2022-09-15T04:50:06.288Z,64.45
2022-09-15T04:52:33.800Z,63.38
2022-09-15T04:55:00.205Z,60.70
2022-09-15T04:57:28.826Z,64.78
2022-09-15T04:59:55.215Z,59.47
2022-09-15T05:02:21.841Z,65.38
2022-09-15T05:04:51.663Z,61.38
2022-09-15T05:07:20.921Z,60.88
2022-09-15T05:09:47.530Z,60.47
2022-09-15T05:12:17.146Z,62.47
2022-09-15T05:14:43.590Z,58.53
2022-09-15T05:17:24.011Z,64.93
2022-09-15T05:19:55.162Z,57.50
2022-09-15T05:22:21.841Z,63.03
2022-09-15T05:24:53.139Z,63.50
2022-09-15T05:27:19.931Z,65.60
2022-09-15T05:29:46.279Z,65.95
2022-09-15T05:32:14.987Z,67.22
2022-09-15T05:34:41.456Z,70.25
2022-09-15T05:37:11.479Z,67.80
2022-09-15T05:39:39.353Z,72.50
2022-09-15T05:42:06.245Z,70.68
2022-09-15T05:44:42.062Z,73.80
2022-09-15T05:47:08.475Z,67.22
2022-09-15T05:49:35.037Z,73.90
2022-09-15T05:52:01.687Z,78.80
2022-09-15T05:54:28.147Z,73.43
2022-09-15T05:56:56.875Z,76.38
2022-09-15T05:59:26.021Z,71.93
2022-09-15T06:01:52.686Z,71.70
2022-09-15T06:04:19.110Z,74.20
2022-09-15T06:06:45.496Z,69.50
2022-09-15T06:09:14.432Z,72.78
2022-09-15T06:11:40.778Z,66.25
2022-09-15T06:14:10.151Z,68.18
2022-09-15T06:16:36.632Z,67.32
2022-09-15T06:19:03.742Z,71.60
2022-09-15T06:21:40.901Z,72.20
2022-09-15T06:24:07.544Z,75.40
2022-09-15T06:26:38.943Z,79.00
2022-09-15T06:29:07.030Z,78.40
2022-09-15T06:31:34.419Z,79.15
2022-09-15T06:34:02.333Z,77.97
2022-09-15T06:36:30.404Z,77.47
2022-09-15T06:38:57.526Z,82.35
2022-09-15T06:41:24.419Z,80.85
2022-09-15T06:43:50.982Z,81.65
2022-09-15T06:46:24.929Z,75.57
2022-09-15T06:49:10.886Z,77.45
2022-09-15T06:51:37.341Z,79.72
2022-09-15T06:54:05.396Z,74.28
2022-09-15T06:56:37.086Z,80.43
2022-09-15T06:59:04.443Z,76.03
2022-09-15T07:01:31.925Z,76.03
2022-09-15T07:04:00.891Z,82.55
2022-09-15T07:06:29.042Z,75.18
2022-09-15T07:08:55.386Z,77.65
2022-09-15T07:11:21.699Z,83.45
2022-09-15T07:13:49.150Z,78.70
2022-09-15T07:16:16.432Z,77.00
2022-09-15T07:18:43.714Z,75.80
2022-09-15T07:21:21.422Z,74.78
2022-09-15T07:23:49.072Z,71.95
2022-09-15T07:26:27.179Z,72.78
2022-09-15T07:28:59.767Z,77.57
2022-09-15T07:31:28.683Z,78.22
2022-09-15T07:33:55.501Z,71.78
2022-09-15T07:36:21.986Z,73.72
2022-09-15T07:38:49.880Z,77.25
2022-09-15T07:41:19.603Z,75.68
2022-09-15T07:43:50.862Z,78.57
2022-09-15T07:46:18.603Z,83.40
2022-09-15T07:48:51.975Z,82.63
2022-09-15T07:51:18.992Z,81.83
2022-09-15T07:53:47.950Z,78.78
2022-09-15T07:56:16.066Z,79.03
2022-09-15T07:58:42.422Z,74.65
2022-09-15T08:01:14.860Z,71.78
2022-09-15T08:03:43.741Z,72.53
2022-09-15T08:06:10.919Z,69.30
2022-09-15T08:08:41.519Z,69.20
2022-09-15T08:11:09.958Z,72.05
2022-09-15T08:13:37.409Z,70.10
2022-09-15T08:16:16.030Z,69.38
2022-09-15T08:18:43.553Z,70.53
2022-09-15T08:21:17.393Z,75.63
2022-09-15T08:23:44.141Z,67.07
2022-09-15T08:26:14.456Z,69.88
2022-09-15T08:28:41.684Z,67.60
2022-09-15T08:31:10.417Z,70.40
2022-09-15T08:33:38.225Z,66.95
2022-09-15T08:36:11.348Z,68.13
2022-09-15T08:38:41.890Z,68.93
2022-09-15T08:41:27.448Z,66.70
2022-09-15T08:44:08.501Z,66.47
2022-09-15T08:46:41.298Z,64.65
2022-09-15T08:49:26.829Z,64.75
2022-09-15T08:52:07.229Z,63.30
2022-09-15T08:54:33.930Z,62.28
2022-09-15T08:57:03.288Z,59.35
2022-09-15T08:59:35.625Z,58.25
2022-09-15T09:02:27.126Z,57.15
2022-09-15T09:05:22.799Z,51.70
2022-09-15T09:07:59.696Z,52.78
2022-09-15T09:10:41.512Z,48.03
2022-09-15T09:13:41.053Z,51.08
2022-09-15T09:16:42.877Z,54.25
2022-09-15T09:19:22.974Z,52.10
2022-09-15T09:22:01.849Z,51.80
2022-09-15T09:24:36.009Z,50.22
2022-09-15T09:27:04.164Z,44.00
2022-09-15T09:29:39.642Z,41.67
2022-09-15T09:33:10.710Z,39.78
2022-09-15T09:35:48.947Z,35.83
2022-09-15T09:38:31.755Z,40.05
2022-09-15T09:41:02.106Z,41.35
2022-09-15T09:43:30.381Z,39.25
2022-09-15T09:45:57.040Z,41.42
2022-09-15T09:48:28.666Z,37.75
2022-09-15T09:50:55.258Z,37.55
2022-09-15T09:53:28.468Z,37.00
2022-09-15T09:56:14.390Z,37.33
2022-09-15T09:58:40.838Z,38.63
2022-09-15T10:01:16.328Z,35.85
2022-09-15T10:03:43.849Z,35.92
2022-09-15T10:06:22.032Z,32.08
2022-09-15T10:09:03.531Z,31.40
2022-09-15T10:11:52.197Z,32.33
2022-09-15T10:14:52.521Z,33.83
2022-09-15T10:17:23.052Z,34.45
2022-09-15T10:19:49.359Z,34.15
2022-09-15T10:22:32.433Z,31.98
2022-09-15T10:25:01.042Z,35.88
2022-09-15T10:27:35.803Z,33.75
2022-09-15T10:30:14.520Z,32.20
2022-09-15T10:32:43.171Z,38.95
2022-09-15T10:35:18.079Z,38.05
2022-09-15T10:38:16.580Z,40.70
2022-09-15T10:41:06.856Z,53.13
2022-09-15T10:43:46.052Z,51.05
2022-09-15T10:46:40.265Z,44.45
2022-09-15T10:49:34.568Z,28.35
2022-09-15T10:52:21.859Z,23.80
2022-09-15T10:55:14.941Z,26.08
2022-09-15T10:58:09.036Z,35.83
2022-09-15T11:00:41.941Z,23.98
2022-09-15T11:03:48.071Z,24.08
2022-09-15T11:06:39.154Z,20.05
2022-09-15T11:09:20.316Z,34.72
2022-09-15T11:12:28.906Z,18.92
2022-09-15T11:15:14.557Z,16.42
2022-09-15T11:18:15.828Z,17.70
2022-09-15T11:21:17.775Z,25.40
2022-09-15T11:23:50.190Z,27.30
2022-09-15T11:26:30.135Z,30.02
2022-09-15T11:29:03.378Z,33.65
2022-09-15T11:31:36.594Z,32.30
2022-09-15T11:34:11.534Z,33.58
2022-09-15T11:36:44.783Z,19.75
2022-09-15T11:39:28.831Z,20.63
2022-09-15T11:42:04.673Z,13.05
2022-09-15T11:44:34.739Z,14.43
2022-09-15T11:47:16.583Z,12.90
2022-09-15T11:49:48.898Z,12.13
2022-09-15T11:52:29.882Z,12.35
2022-09-15T11:55:08.619Z,13.23
2022-09-15T11:57:43.255Z,13.98
2022-09-15T12:00:14.759Z,14.02
2022-09-15T12:03:06.936Z,13.07
2022-09-15T12:05:41.534Z,14.30
2022-09-15T12:08:40.307Z,11.60
2022-09-15T12:11:19.368Z,12.38
2022-09-15T12:13:46.405Z,13.38
2022-09-15T12:16:14.526Z,13.32
2022-09-15T12:18:56.338Z,12.48
2022-09-15T12:21:38.863Z,12.68
2022-09-15T12:24:29.684Z,11.50
2022-09-15T12:26:56.090Z,11.02
2022-09-15T12:29:22.401Z,11.32
2022-09-15T12:32:14.260Z,10.98
2022-09-15T12:34:54.647Z,10.45
2022-09-15T12:37:21.051Z,12.27
2022-09-15T12:39:48.536Z,13.38
2022-09-15T12:42:29.371Z,14.43
2022-09-15T12:45:02.481Z,16.38
2022-09-15T12:47:31.700Z,17.90
2022-09-15T12:50:03.232Z,16.10
2022-09-15T12:52:29.963Z,18.13
2022-09-15T12:55:01.459Z,14.52
2022-09-15T12:57:35.485Z,16.08
2022-09-15T13:00:45.596Z,15.75
2022-09-15T13:03:49.483Z,15.13
2022-09-15T13:06:30.071Z,15.90
2022-09-15T13:09:03.853Z,14.80
2022-09-15T13:11:34.517Z,14.65
2022-09-15T13:14:04.093Z,17.27
2022-09-15T13:16:53.679Z,17.98
2022-09-15T13:19:29.574Z,15.90
2022-09-15T13:22:03.730Z,16.60
2022-09-15T13:24:42.965Z,15.20
2022-09-15T13:27:10.332Z,15.52
2022-09-15T13:29:47.146Z,15.25
2022-09-15T13:32:40.166Z,14.70
2022-09-15T13:35:30.766Z,16.00
2022-09-15T13:38:34.549Z,16.25
2022-09-15T13:41:34.836Z,16.80
2022-09-15T13:44:29.247Z,16.67
2022-09-15T13:47:17.782Z,15.70
2022-09-15T13:49:51.758Z,15.15
2022-09-15T13:52:22.365Z,14.57
2022-09-15T13:55:10.166Z,15.90
2022-09-15T14:00:33.871Z,17.42
2022-09-15T14:03:05.404Z,16.88
2022-09-15T14:05:34.999Z,17.13
2022-09-15T14:08:05.422Z,16.95
2022-09-15T14:10:39.969Z,15.70
2022-09-15T14:13:06.334Z,15.00
2022-09-15T14:15:32.850Z,12.70
2022-09-15T14:17:59.303Z,14.32
2022-09-15T14:20:30.991Z,13.10
2022-09-15T14:22:59.315Z,11.82
2022-09-15T14:25:27.808Z,11.88
2022-09-15T14:27:55.215Z,8.98
2022-09-15T14:30:31.869Z,8.98
2022-09-15T14:33:01.120Z,10.57
2022-09-15T14:35:35.019Z,13.10
2022-09-15T14:38:01.784Z,14.85
2022-09-15T14:40:41.237Z,17.60
2022-09-15T14:43:28.076Z,16.52
2022-09-15T14:46:02.463Z,16.27
2022-09-15T14:48:34.250Z,15.77
2022-09-15T14:51:02.913Z,15.90
2022-09-15T14:53:32.888Z,16.83
2022-09-15T14:56:11.526Z,16.55
2022-09-15T14:58:46.121Z,16.52
2022-09-15T15:01:22.685Z,16.52
2022-09-15T15:04:11.602Z,13.25
2022-09-15T15:06:59.294Z,13.52
2022-09-15T15:09:32.844Z,14.65
2022-09-15T15:12:16.158Z,13.95
2022-09-15T15:14:42.667Z,14.75
2022-09-15T15:17:27.163Z,14.27
2022-09-15T15:20:10.309Z,14.05
2022-09-15T15:22:38.666Z,12.77
2022-09-15T15:25:22.164Z,11.38
2022-09-15T15:27:54.019Z,12.13
2022-09-15T15:30:30.421Z,12.15
2022-09-15T15:33:03.116Z,11.15
2022-09-15T15:35:30.854Z,10.68
2022-09-15T15:38:03.412Z,12.07
2022-09-15T15:40:30.574Z,12.88
2022-09-15T15:43:05.671Z,11.82
2022-09-15T15:45:35.214Z,12.70
2022-09-15T15:48:03.684Z,15.13
2022-09-15T15:50:32.553Z,15.05
2022-09-15T15:53:00.755Z,15.82
2022-09-15T15:55:40.163Z,16.48
2022-09-15T15:58:06.675Z,17.10
2022-09-15T16:00:46.394Z,17.35
2022-09-15T16:03:14.531Z,16.30
2022-09-15T16:05:44.099Z,16.98
2022-09-15T16:08:31.024Z,15.80
2022-09-15T16:10:58.514Z,17.23
2022-09-15T16:13:25.306Z,18.58
2022-09-15T16:15:58.040Z,18.42
2022-09-15T16:18:24.766Z,18.58
2022-09-15T16:20:51.547Z,18.55
2022-09-15T16:23:20.397Z,18.83
2022-09-15T16:26:01.353Z,17.70
2022-09-15T16:28:28.696Z,17.85
2022-09-15T16:30:55.279Z,17.40
2022-09-15T16:33:21.645Z,18.02
2022-09-15T16:35:52.836Z,18.90
2022-09-15T16:38:21.808Z,20.17
2022-09-15T16:40:49.307Z,19.90
2022-09-15T16:43:17.584Z,14.15
2022-09-15T16:45:44.160Z,9.35
2022-09-15T16:48:11.078Z,7.50
2022-09-15T16:50:42.650Z,6.70
2022-09-15T16:53:17.834Z,6.72
2022-09-15T16:55:49.050Z,6.90
2022-09-15T16:58:16.496Z,7.82
2022-09-15T17:00:44.296Z,10.18
2022-09-15T17:03:17.217Z,8.48
2022-09-15T17:05:52.314Z,8.48
2022-09-15T17:08:21.322Z,7.15
2022-09-15T17:10:48.474Z,9.07
2022-09-15T17:13:20.192Z,8.88
2022-09-15T17:15:47.289Z,8.65
2022-09-15T17:18:15.362Z,6.80
2022-09-15T17:20:43.164Z,7.88
2022-09-15T17:23:27.653Z,6.38
2022-09-15T17:26:01.129Z,6.30
2022-09-15T17:28:31.006Z,8.93
2022-09-15T17:31:06.193Z,6.25
2022-09-15T17:33:33.191Z,8.40
2022-09-15T17:36:00.174Z,7.82
2022-09-15T17:38:27.400Z,7.40
2022-09-15T17:40:55.375Z,7.88
2022-09-15T17:43:25.203Z,7.63
2022-09-15T17:45:51.693Z,6.93
2022-09-15T17:48:18.354Z,7.57
2022-09-15T17:50:46.176Z,6.65
2022-09-15T17:53:14.986Z,6.15
2022-09-15T17:55:50.680Z,6.00
2022-09-15T17:58:32.512Z,6.97
2022-09-15T18:01:27.087Z,8.38
2022-09-15T18:04:29.856Z,7.35
2022-09-15T18:07:03.716Z,7.38
2022-09-15T18:09:31.472Z,7.80
2022-09-15T18:11:59.933Z,8.18
2022-09-15T18:14:29.451Z,6.95
2022-09-15T18:17:05.842Z,9.52
2022-09-15T18:19:43.836Z,7.70
2022-09-15T18:22:16.015Z,10.32
2022-09-15T18:24:42.728Z,10.63
2022-09-15T18:30:10.912Z,11.38
2022-09-15T18:35:29.182Z,11.85
2022-09-15T18:38:09.027Z,12.30
2022-09-15T18:40:35.687Z,15.90
2022-09-15T18:43:02.038Z,14.60
2022-09-15T18:45:28.592Z,15.88
2022-09-15T18:47:55.091Z,13.57
2022-09-15T18:50:25.242Z,13.88
2022-09-15T18:52:51.714Z,13.05
2022-09-15T18:55:21.130Z,12.55
2022-09-15T18:57:48.392Z,11.60
2022-09-15T19:00:21.068Z,11.10
2022-09-15T19:02:47.611Z,10.85
2022-09-15T19:05:15.654Z,11.70
2022-09-15T19:07:43.977Z,11.27
2022-09-15T19:10:11.602Z,11.75
2022-09-15T19:12:39.037Z,11.25
2022-09-15T19:15:10.767Z,12.55
2022-09-15T19:17:39.226Z,11.73
2022-09-15T19:20:07.199Z,13.00
2022-09-15T19:22:33.719Z,13.77
2022-09-15T19:25:00.047Z,11.98
2022-09-15T19:27:26.480Z,13.20
2022-09-15T19:29:52.936Z,12.85
2022-09-15T19:32:20.847Z,13.52
2022-09-15T19:34:47.655Z,17.13
2022-09-15T19:37:18.618Z,13.50
2022-09-15T19:39:45.925Z,16.63
2022-09-15T19:42:13.380Z,17.77
2022-09-15T19:44:41.449Z,18.23
2022-09-15T19:47:08.434Z,17.05
2022-09-15T19:49:34.929Z,18.92
2022-09-15T19:52:01.385Z,17.45
2022-09-15T19:54:29.638Z,16.90
2022-09-15T19:56:56.615Z,15.63
2022-09-15T19:59:26.271Z,15.95
2022-09-15T20:01:55.184Z,15.52
2022-09-15T20:04:21.694Z,15.55
2022-09-15T20:06:48.044Z,15.00
2022-09-15T20:09:15.203Z,16.15
2022-09-15T20:11:41.555Z,15.02
2022-09-15T20:14:07.942Z,16.40
2022-09-15T20:16:34.609Z,14.77
2022-09-15T20:19:02.966Z,16.83
2022-09-15T20:21:49.150Z,15.50
2022-09-15T20:24:16.663Z,15.18
2022-09-15T20:26:43.168Z,16.70
2022-09-15T20:29:10.666Z,15.98
2022-09-15T20:31:37.083Z,15.77
2022-09-15T20:34:03.488Z,15.70
2022-09-15T20:36:35.424Z,16.40
2022-09-15T20:39:04.519Z,16.35
2022-09-15T20:41:34.568Z,15.45
2022-09-15T20:44:01.941Z,15.70
2022-09-15T20:46:31.346Z,17.10
2022-09-15T20:48:57.699Z,16.15
2022-09-15T20:51:26.098Z,17.70
2022-09-15T20:53:54.906Z,15.93
2022-09-15T20:56:25.242Z,16.52
2022-09-15T20:58:52.980Z,16.80
2022-09-15T21:01:25.679Z,18.10
2022-09-15T21:03:53.332Z,18.23
2022-09-15T21:06:22.926Z,17.80
2022-09-15T21:08:49.986Z,18.42
2022-09-15T21:11:19.328Z,20.73
2022-09-15T21:13:47.079Z,20.75
2022-09-15T21:16:16.484Z,19.23
2022-09-15T21:18:45.297Z,21.90
2022-09-15T21:21:14.879Z,19.02
2022-09-15T21:23:44.295Z,20.42
2022-09-15T21:26:22.196Z,19.35
2022-09-15T21:28:48.705Z,21.08
2022-09-15T21:31:20.261Z,19.50
2022-09-15T21:33:47.579Z,18.17
2022-09-15T21:36:20.730Z,20.30
2022-09-15T21:38:47.340Z,20.00
2022-09-15T21:41:16.563Z,18.60
2022-09-15T21:43:46.414Z,18.13
2022-09-15T21:46:16.218Z,18.08
2022-09-15T21:48:44.209Z,20.30
2022-09-15T21:51:14.351Z,19.50
2022-09-15T21:53:42.244Z,20.25
2022-09-15T21:56:10.126Z,17.65
2022-09-15T21:58:42.635Z,20.58
2022-09-15T22:01:09.923Z,19.33
2022-09-15T22:03:37.434Z,20.08
2022-09-15T22:06:03.983Z,21.27
2022-09-15T22:08:30.389Z,20.23
2022-09-15T22:11:00.558Z,19.25
2022-09-15T22:13:28.054Z,19.73
2022-09-15T22:16:05.401Z,20.58
2022-09-15T22:18:32.125Z,20.25
2022-09-15T22:21:07.768Z,21.08
2022-09-15T22:23:34.733Z,17.02
2022-09-15T22:26:03.640Z,18.30
2022-09-15T22:28:31.275Z,17.20
2022-09-15T22:31:03.532Z,18.60
2022-09-15T22:33:30.283Z,18.08
2022-09-15T22:35:57.196Z,17.38
2022-09-15T22:38:25.000Z,18.98
2022-09-15T22:40:51.531Z,18.70
2022-09-15T22:43:17.973Z,16.35
2022-09-15T22:45:44.387Z,19.20
2022-09-15T22:48:10.818Z,19.45
2022-09-15T22:50:37.250Z,19.00
2022-09-15T22:53:03.692Z,19.95
2022-09-15T22:55:31.699Z,18.83
2022-09-15T22:57:58.170Z,19.65
2022-09-15T23:00:24.828Z,20.65
2022-09-15T23:02:51.840Z,20.00
2022-09-15T23:05:18.243Z,20.73
2022-09-15T23:07:44.599Z,19.52
2022-09-15T23:10:10.943Z,19.98
2022-09-15T23:12:37.320Z,21.67
2022-09-15T23:15:04.911Z,19.88
2022-09-15T23:17:31.477Z,21.65
2022-09-15T23:19:57.901Z,21.67
2022-09-15T23:22:24.261Z,21.15
2022-09-15T23:24:50.633Z,19.77
2022-09-15T23:27:17.163Z,22.15
2022-09-15T23:29:43.517Z,23.63
2022-09-15T23:32:10.016Z,23.17
2022-09-15T23:34:36.344Z,22.95
2022-09-15T23:37:02.904Z,23.63
2022-09-15T23:39:29.617Z,23.77
2022-09-15T23:41:55.995Z,25.15
2022-09-15T23:44:22.358Z,23.42
2022-09-15T23:46:48.884Z,23.20
2022-09-15T23:49:18.603Z,24.67
2022-09-15T23:51:45.316Z,23.92
2022-09-15T23:54:11.650Z,24.67
2022-09-15T23:56:38.308Z,23.40
2022-09-15T23:59:04.703Z,26.60
